sensor_id;sensor_type;location;lat;lon;timestamp;pressure;altitude;pressure_sealevel;temperature;humidity
36014;BME280;22275;43.208;27.620;2023-05-20T00:00:28;101327.63;;;19.21;100.00
36014;BME280;22275;43.208;27.620;2023-05-20T00:02:59;101330.91;;;19.04;100.00
36014;BME280;22275;43.208;27.620;2023-05-20T00:05:27;101326.19;;;18.75;100.00
36014;BME280;22275;43.208;27.620;2023-05-20T00:07:54;101321.63;;;18.66;100.00
36014;BME280;22275;43.208;27.620;2023-05-20T00:10:24;101322.91;;;18.40;100.00
36014;BME280;22275;43.208;27.620;2023-05-20T00:12:57;101312.97;;;18.42;100.00
36014;BME280;22275;43.208;27.620;2023-05-20T00:15:24;101321.94;;;18.52;100.00
36014;BME280;22275;43.208;27.620;2023-05-20T00:17:51;101304.50;;;18.37;100.00
36014;BME280;22275;43.208;27.620;2023-05-20T00:20:18;101311.75;;;18.46;100.00
36014;BME280;22275;43.208;27.620;2023-05-20T00:22:51;101300.72;;;19.64;100.00
36014;BME280;22275;43.208;27.620;2023-05-20T00:25:18;101282.13;;;19.62;100.00
36014;BME280;22275;43.208;27.620;2023-05-20T00:27:56;101290.03;;;19.73;100.00
36014;BME280;22275;43.208;27.620;2023-05-20T00:30:26;101275.88;;;19.82;100.00
36014;BME280;22275;43.208;27.620;2023-05-20T00:32:53;101292.06;;;19.90;100.00
36014;BME280;22275;43.208;27.620;2023-05-20T00:35:21;101297.00;;;20.04;100.00
36014;BME280;22275;43.208;27.620;2023-05-20T00:37:48;101296.50;;;20.30;100.00
36014;BME280;22275;43.208;27.620;2023-05-20T00:40:17;101297.34;;;20.49;100.00
36014;BME280;22275;43.208;27.620;2023-05-20T00:42:46;101297.19;;;21.08;100.00
36014;BME280;22275;43.208;27.620;2023-05-20T00:45:17;101265.19;;;21.44;100.00
36014;BME280;22275;43.208;27.620;2023-05-20T00:47:44;101286.16;;;21.85;100.00
36014;BME280;22275;43.208;27.620;2023-05-20T00:50:12;101293.78;;;22.07;100.00
36014;BME280;22275;43.208;27.620;2023-05-20T00:52:42;101290.97;;;22.26;100.00
36014;BME280;22275;43.208;27.620;2023-05-20T00:55:12;101284.56;;;21.92;100.00
36014;BME280;22275;43.208;27.620;2023-05-20T00:57:40;101282.91;;;21.17;100.00
36014;BME280;22275;43.208;27.620;2023-05-20T01:00:10;101281.22;;;21.16;100.00
36014;BME280;22275;43.208;27.620;2023-05-20T01:02:39;101280.88;;;21.29;100.00
36014;BME280;22275;43.208;27.620;2023-05-20T01:05:09;101286.59;;;21.16;100.00
36014;BME280;22275;43.208;27.620;2023-05-20T01:07:38;101287.06;;;20.74;100.00
36014;BME280;22275;43.208;27.620;2023-05-20T01:10:06;101278.50;;;20.32;100.00
36014;BME280;22275;43.208;27.620;2023-05-20T01:12:38;101283.28;;;20.38;100.00
36014;BME280;22275;43.208;27.620;2023-05-20T01:15:07;101290.84;;;20.14;100.00
36014;BME280;22275;43.208;27.620;2023-05-20T01:17:36;101279.91;;;20.26;100.00
36014;BME280;22275;43.208;27.620;2023-05-20T01:20:07;101271.41;;;20.21;100.00
36014;BME280;22275;43.208;27.620;2023-05-20T01:22:38;101265.81;;;20.34;100.00
36014;BME280;22275;43.208;27.620;2023-05-20T01:25:05;101279.44;;;20.69;100.00
36014;BME280;22275;43.208;27.620;2023-05-20T01:27:33;101254.81;;;20.56;100.00
36014;BME280;22275;43.208;27.620;2023-05-20T01:30:00;101272.22;;;20.98;100.00
36014;BME280;22275;43.208;27.620;2023-05-20T01:32:31;101277.28;;;20.92;100.00
36014;BME280;22275;43.208;27.620;2023-05-20T01:35:05;101274.50;;;20.93;100.00
36014;BME280;22275;43.208;27.620;2023-05-20T01:37:43;101281.56;;;20.75;100.00
36014;BME280;22275;43.208;27.620;2023-05-20T01:40:13;101279.03;;;20.74;100.00
36014;BME280;22275;43.208;27.620;2023-05-20T01:42:44;101257.94;;;20.42;100.00
36014;BME280;22275;43.208;27.620;2023-05-20T01:45:17;101281.97;;;20.13;100.00
36014;BME280;22275;43.208;27.620;2023-05-20T01:47:44;101270.66;;;19.90;100.00
36014;BME280;22275;43.208;27.620;2023-05-20T01:50:11;101289.13;;;19.93;100.00
36014;BME280;22275;43.208;27.620;2023-05-20T01:52:44;101282.06;;;19.92;100.00
36014;BME280;22275;43.208;27.620;2023-05-20T01:55:11;101288.00;;;19.86;100.00
36014;BME280;22275;43.208;27.620;2023-05-20T01:57:40;101291.75;;;19.74;100.00
36014;BME280;22275;43.208;27.620;2023-05-20T02:00:10;101289.44;;;19.60;100.00
36014;BME280;22275;43.208;27.620;2023-05-20T02:02:42;101298.00;;;19.54;100.00
36014;BME280;22275;43.208;27.620;2023-05-20T02:05:12;101295.22;;;19.35;100.00
36014;BME280;22275;43.208;27.620;2023-05-20T02:07:42;101294.75;;;19.30;100.00
36014;BME280;22275;43.208;27.620;2023-05-20T02:10:10;101305.59;;;19.49;100.00
36014;BME280;22275;43.208;27.620;2023-05-20T02:12:39;101314.63;;;19.37;100.00
36014;BME280;22275;43.208;27.620;2023-05-20T02:15:07;101319.22;;;19.56;100.00
36014;BME280;22275;43.208;27.620;2023-05-20T02:17:34;101305.91;;;19.65;100.00
36014;BME280;22275;43.208;27.620;2023-05-20T02:20:02;101315.53;;;19.87;100.00
36014;BME280;22275;43.208;27.620;2023-05-20T02:22:31;101308.84;;;20.02;100.00
36014;BME280;22275;43.208;27.620;2023-05-20T02:24:59;101332.81;;;20.23;100.00
36014;BME280;22275;43.208;27.620;2023-05-20T02:27:26;101317.91;;;20.30;100.00
36014;BME280;22275;43.208;27.620;2023-05-20T02:29:54;101296.22;;;20.33;100.00
36014;BME280;22275;43.208;27.620;2023-05-20T02:32:21;101321.31;;;20.41;100.00
36014;BME280;22275;43.208;27.620;2023-05-20T02:34:52;101323.69;;;20.25;100.00
36014;BME280;22275;43.208;27.620;2023-05-20T02:37:19;101304.56;;;20.39;100.00
36014;BME280;22275;43.208;27.620;2023-05-20T02:39:47;101312.56;;;20.30;100.00
36014;BME280;22275;43.208;27.620;2023-05-20T02:42:18;101305.25;;;20.32;100.00
36014;BME280;22275;43.208;27.620;2023-05-20T02:44:47;101312.38;;;20.22;100.00
36014;BME280;22275;43.208;27.620;2023-05-20T02:47:14;101319.03;;;20.27;100.00
36014;BME280;22275;43.208;27.620;2023-05-20T02:49:47;101328.59;;;20.20;100.00
36014;BME280;22275;43.208;27.620;2023-05-20T02:52:14;101314.47;;;20.18;100.00
36014;BME280;22275;43.208;27.620;2023-05-20T02:54:48;101334.28;;;20.46;100.00
36014;BME280;22275;43.208;27.620;2023-05-20T02:57:21;101322.28;;;20.31;100.00
36014;BME280;22275;43.208;27.620;2023-05-20T02:59:51;101311.94;;;20.07;100.00
36014;BME280;22275;43.208;27.620;2023-05-20T03:02:19;101318.09;;;19.88;100.00
36014;BME280;22275;43.208;27.620;2023-05-20T03:04:52;101304.91;;;20.06;100.00
36014;BME280;22275;43.208;27.620;2023-05-20T03:07:20;101328.19;;;20.44;100.00
36014;BME280;22275;43.208;27.620;2023-05-20T03:09:47;101337.66;;;20.48;100.00
36014;BME280;22275;43.208;27.620;2023-05-20T03:12:16;101351.47;;;20.62;100.00
36014;BME280;22275;43.208;27.620;2023-05-20T03:14:45;101344.69;;;21.16;100.00
36014;BME280;22275;43.208;27.620;2023-05-20T03:17:12;101348.00;;;21.37;100.00
36014;BME280;22275;43.208;27.620;2023-05-20T03:19:39;101339.34;;;21.53;100.00
36014;BME280;22275;43.208;27.620;2023-05-20T03:22:06;101349.56;;;21.40;100.00
36014;BME280;22275;43.208;27.620;2023-05-20T03:24:33;101362.06;;;21.49;100.00
36014;BME280;22275;43.208;27.620;2023-05-20T03:27:00;101362.31;;;21.18;100.00
36014;BME280;22275;43.208;27.620;2023-05-20T03:29:28;101357.63;;;20.44;100.00
36014;BME280;22275;43.208;27.620;2023-05-20T03:31:57;101365.88;;;20.22;100.00
36014;BME280;22275;43.208;27.620;2023-05-20T03:34:24;101365.47;;;20.17;100.00
36014;BME280;22275;43.208;27.620;2023-05-20T03:36:54;101378.13;;;20.15;100.00
36014;BME280;22275;43.208;27.620;2023-05-20T03:39:23;101380.94;;;20.03;100.00
36014;BME280;22275;43.208;27.620;2023-05-20T03:41:53;101371.50;;;20.19;100.00
36014;BME280;22275;43.208;27.620;2023-05-20T03:44:20;101376.38;;;19.94;100.00
36014;BME280;22275;43.208;27.620;2023-05-20T03:46:48;101357.28;;;20.08;100.00
36014;BME280;22275;43.208;27.620;2023-05-20T03:49:19;101368.84;;;20.19;100.00
36014;BME280;22275;43.208;27.620;2023-05-20T03:51:51;101368.72;;;19.80;100.00
36014;BME280;22275;43.208;27.620;2023-05-20T03:54:18;101370.28;;;19.83;100.00
36014;BME280;22275;43.208;27.620;2023-05-20T03:56:46;101365.91;;;19.82;100.00
36014;BME280;22275;43.208;27.620;2023-05-20T03:59:14;101367.34;;;19.95;100.00
36014;BME280;22275;43.208;27.620;2023-05-20T04:01:41;101360.81;;;19.69;100.00
36014;BME280;22275;43.208;27.620;2023-05-20T04:04:08;101364.09;;;19.52;100.00
36014;BME280;22275;43.208;27.620;2023-05-20T04:06:41;101362.38;;;19.72;100.00
36014;BME280;22275;43.208;27.620;2023-05-20T04:09:08;101352.91;;;19.68;100.00
36014;BME280;22275;43.208;27.620;2023-05-20T04:11:39;101357.13;;;20.00;100.00
36014;BME280;22275;43.208;27.620;2023-05-20T04:14:08;101348.84;;;20.03;100.00
36014;BME280;22275;43.208;27.620;2023-05-20T04:16:35;101344.28;;;19.94;100.00
36014;BME280;22275;43.208;27.620;2023-05-20T04:19:05;101343.13;;;19.87;100.00
36014;BME280;22275;43.208;27.620;2023-05-20T04:21:34;101351.03;;;19.89;100.00
36014;BME280;22275;43.208;27.620;2023-05-20T04:24:03;101351.00;;;19.79;100.00
36014;BME280;22275;43.208;27.620;2023-05-20T04:26:35;101356.97;;;19.62;100.00
36014;BME280;22275;43.208;27.620;2023-05-20T04:29:02;101360.16;;;19.46;100.00
36014;BME280;22275;43.208;27.620;2023-05-20T04:31:29;101363.31;;;19.20;100.00
36014;BME280;22275;43.208;27.620;2023-05-20T04:33:58;101357.72;;;19.23;100.00
36014;BME280;22275;43.208;27.620;2023-05-20T04:36:25;101368.06;;;19.16;100.00
36014;BME280;22275;43.208;27.620;2023-05-20T04:38:53;101365.91;;;19.10;100.00
36014;BME280;22275;43.208;27.620;2023-05-20T04:41:28;101362.94;;;19.04;100.00
36014;BME280;22275;43.208;27.620;2023-05-20T04:43:55;101367.94;;;19.18;100.00
36014;BME280;22275;43.208;27.620;2023-05-20T04:46:25;101318.84;;;19.09;100.00
36014;BME280;22275;43.208;27.620;2023-05-20T04:48:53;101362.00;;;19.35;100.00
36014;BME280;22275;43.208;27.620;2023-05-20T04:51:21;101370.59;;;19.59;100.00
36014;BME280;22275;43.208;27.620;2023-05-20T04:53:51;101368.47;;;19.83;100.00
36014;BME280;22275;43.208;27.620;2023-05-20T04:56:20;101387.53;;;19.07;100.00
36014;BME280;22275;43.208;27.620;2023-05-20T04:58:51;101387.75;;;19.15;100.00
36014;BME280;22275;43.208;27.620;2023-05-20T05:01:19;101395.94;;;19.03;100.00
36014;BME280;22275;43.208;27.620;2023-05-20T05:03:46;101380.19;;;19.20;100.00
36014;BME280;22275;43.208;27.620;2023-05-20T05:06:13;101382.97;;;19.19;100.00
36014;BME280;22275;43.208;27.620;2023-05-20T05:08:43;101378.97;;;19.45;100.00
36014;BME280;22275;43.208;27.620;2023-05-20T05:11:10;101380.44;;;19.59;100.00
36014;BME280;22275;43.208;27.620;2023-05-20T05:13:39;101389.38;;;19.48;100.00
36014;BME280;22275;43.208;27.620;2023-05-20T05:16:08;101389.38;;;19.48;100.00
36014;BME280;22275;43.208;27.620;2023-05-20T05:18:35;101386.91;;;19.56;100.00
36014;BME280;22275;43.208;27.620;2023-05-20T05:21:07;101373.97;;;19.61;100.00
36014;BME280;22275;43.208;27.620;2023-05-20T05:23:35;101362.41;;;19.51;100.00
36014;BME280;22275;43.208;27.620;2023-05-20T05:26:02;101350.66;;;19.63;100.00
36014;BME280;22275;43.208;27.620;2023-05-20T05:28:31;101363.88;;;19.65;100.00
36014;BME280;22275;43.208;27.620;2023-05-20T05:31:00;101358.84;;;19.71;100.00
36014;BME280;22275;43.208;27.620;2023-05-20T05:33:29;101360.56;;;19.82;100.00
36014;BME280;22275;43.208;27.620;2023-05-20T05:35:58;101355.38;;;19.80;100.00
36014;BME280;22275;43.208;27.620;2023-05-20T05:38:31;101350.63;;;19.93;100.00
36014;BME280;22275;43.208;27.620;2023-05-20T05:40:59;101354.09;;;19.84;100.00
36014;BME280;22275;43.208;27.620;2023-05-20T05:43:26;101354.00;;;19.95;100.00
36014;BME280;22275;43.208;27.620;2023-05-20T05:45:56;101342.53;;;19.74;100.00
36014;BME280;22275;43.208;27.620;2023-05-20T05:48:25;101351.69;;;19.81;100.00
36014;BME280;22275;43.208;27.620;2023-05-20T05:50:54;101341.84;;;19.82;100.00
36014;BME280;22275;43.208;27.620;2023-05-20T05:53:24;101341.72;;;19.53;100.00
36014;BME280;22275;43.208;27.620;2023-05-20T05:55:51;101343.41;;;19.84;100.00
36014;BME280;22275;43.208;27.620;2023-05-20T05:58:19;101343.66;;;19.72;100.00
36014;BME280;22275;43.208;27.620;2023-05-20T06:00:46;101342.75;;;19.62;100.00
36014;BME280;22275;43.208;27.620;2023-05-20T06:03:16;101340.25;;;19.70;100.00
36014;BME280;22275;43.208;27.620;2023-05-20T06:05:45;101332.53;;;19.67;100.00
36014;BME280;22275;43.208;27.620;2023-05-20T06:08:17;101342.38;;;19.76;100.00
36014;BME280;22275;43.208;27.620;2023-05-20T06:10:47;101341.94;;;19.71;100.00
36014;BME280;22275;43.208;27.620;2023-05-20T06:13:22;101340.56;;;19.76;100.00
36014;BME280;22275;43.208;27.620;2023-05-20T06:15:49;101346.53;;;19.89;100.00
36014;BME280;22275;43.208;27.620;2023-05-20T06:18:18;101345.31;;;19.73;100.00
36014;BME280;22275;43.208;27.620;2023-05-20T06:20:45;101345.84;;;19.57;100.00
36014;BME280;22275;43.208;27.620;2023-05-20T06:23:12;101325.97;;;19.80;100.00
36014;BME280;22275;43.208;27.620;2023-05-20T06:25:40;101334.56;;;19.93;100.00
36014;BME280;22275;43.208;27.620;2023-05-20T06:28:08;101334.50;;;20.14;100.00
36014;BME280;22275;43.208;27.620;2023-05-20T06:30:35;101332.03;;;20.32;100.00
36014;BME280;22275;43.208;27.620;2023-05-20T06:33:02;101324.63;;;20.24;100.00
36014;BME280;22275;43.208;27.620;2023-05-20T06:35:29;101332.56;;;20.35;100.00
36014;BME280;22275;43.208;27.620;2023-05-20T06:37:59;101320.19;;;20.44;100.00
36014;BME280;22275;43.208;27.620;2023-05-20T06:40:28;101328.34;;;20.90;100.00
36014;BME280;22275;43.208;27.620;2023-05-20T06:43:02;101328.03;;;21.12;100.00
36014;BME280;22275;43.208;27.620;2023-05-20T06:45:30;101327.03;;;21.04;100.00
36014;BME280;22275;43.208;27.620;2023-05-20T06:48:03;101331.91;;;21.47;100.00
36014;BME280;22275;43.208;27.620;2023-05-20T06:50:31;101327.88;;;21.60;100.00
36014;BME280;22275;43.208;27.620;2023-05-20T06:53:00;101329.47;;;21.16;100.00
36014;BME280;22275;43.208;27.620;2023-05-20T06:55:29;101323.84;;;21.47;100.00
36014;BME280;22275;43.208;27.620;2023-05-20T06:57:56;101322.38;;;21.62;100.00
36014;BME280;22275;43.208;27.620;2023-05-20T07:00:25;101333.81;;;20.98;100.00
36014;BME280;22275;43.208;27.620;2023-05-20T07:02:52;101302.41;;;20.81;100.00
36014;BME280;22275;43.208;27.620;2023-05-20T07:05:19;101326.22;;;20.84;100.00
36014;BME280;22275;43.208;27.620;2023-05-20T07:07:46;101335.91;;;21.24;100.00
36014;BME280;22275;43.208;27.620;2023-05-20T07:10:16;101339.44;;;21.14;100.00
36014;BME280;22275;43.208;27.620;2023-05-20T07:12:43;101343.50;;;21.38;100.00
36014;BME280;22275;43.208;27.620;2023-05-20T07:15:16;101347.88;;;21.39;100.00
36014;BME280;22275;43.208;27.620;2023-05-20T07:17:47;101348.03;;;21.28;100.00
36014;BME280;22275;43.208;27.620;2023-05-20T07:20:14;101344.81;;;21.05;100.00
36014;BME280;22275;43.208;27.620;2023-05-20T07:22:42;101357.66;;;21.01;100.00
36014;BME280;22275;43.208;27.620;2023-05-20T07:25:15;101357.50;;;21.12;100.00
36014;BME280;22275;43.208;27.620;2023-05-20T07:27:50;101345.31;;;21.37;100.00
36014;BME280;22275;43.208;27.620;2023-05-20T07:30:20;101363.41;;;21.72;100.00
36014;BME280;22275;43.208;27.620;2023-05-20T07:32:48;101361.50;;;21.92;100.00
36014;BME280;22275;43.208;27.620;2023-05-20T07:35:16;101374.13;;;21.72;100.00
36014;BME280;22275;43.208;27.620;2023-05-20T07:37:46;101370.41;;;21.92;100.00
36014;BME280;22275;43.208;27.620;2023-05-20T07:40:13;101340.34;;;22.16;100.00
36014;BME280;22275;43.208;27.620;2023-05-20T07:42:40;101384.72;;;22.55;100.00
36014;BME280;22275;43.208;27.620;2023-05-20T07:45:10;101386.47;;;22.47;100.00
36014;BME280;22275;43.208;27.620;2023-05-20T07:47:37;101393.06;;;22.07;100.00
36014;BME280;22275;43.208;27.620;2023-05-20T07:50:10;101399.22;;;21.81;100.00
36014;BME280;22275;43.208;27.620;2023-05-20T07:52:39;101394.97;;;21.51;100.00
36014;BME280;22275;43.208;27.620;2023-05-20T07:55:07;101398.75;;;21.58;100.00
36014;BME280;22275;43.208;27.620;2023-05-20T07:57:34;101372.22;;;21.55;100.00
36014;BME280;22275;43.208;27.620;2023-05-20T08:00:04;101401.25;;;21.69;100.00
36014;BME280;22275;43.208;27.620;2023-05-20T08:02:32;101390.28;;;21.99;100.00
36014;BME280;22275;43.208;27.620;2023-05-20T08:04:59;101381.03;;;22.11;100.00
36014;BME280;22275;43.208;27.620;2023-05-20T08:07:28;101385.75;;;22.00;100.00
36014;BME280;22275;43.208;27.620;2023-05-20T08:09:56;101378.94;;;22.05;100.00
36014;BME280;22275;43.208;27.620;2023-05-20T08:12:23;101392.88;;;22.18;100.00
36014;BME280;22275;43.208;27.620;2023-05-20T08:14:50;101386.69;;;22.08;100.00
36014;BME280;22275;43.208;27.620;2023-05-20T08:17:20;101378.91;;;21.78;100.00
36014;BME280;22275;43.208;27.620;2023-05-20T08:19:48;101386.09;;;21.87;100.00
36014;BME280;22275;43.208;27.620;2023-05-20T08:22:16;101383.34;;;21.97;100.00
36014;BME280;22275;43.208;27.620;2023-05-20T08:24:45;101377.28;;;22.04;100.00
36014;BME280;22275;43.208;27.620;2023-05-20T08:27:16;101397.66;;;21.32;100.00
36014;BME280;22275;43.208;27.620;2023-05-20T08:29:44;101403.06;;;20.74;100.00
36014;BME280;22275;43.208;27.620;2023-05-20T08:32:11;101401.22;;;20.84;100.00
36014;BME280;22275;43.208;27.620;2023-05-20T08:34:38;101399.00;;;21.08;100.00
36014;BME280;22275;43.208;27.620;2023-05-20T08:37:05;101396.53;;;21.44;100.00
36014;BME280;22275;43.208;27.620;2023-05-20T08:39:36;101391.38;;;21.60;100.00
36014;BME280;22275;43.208;27.620;2023-05-20T08:42:09;101393.16;;;21.78;100.00
36014;BME280;22275;43.208;27.620;2023-05-20T08:44:40;101390.03;;;21.93;100.00
36014;BME280;22275;43.208;27.620;2023-05-20T08:47:10;101354.41;;;22.00;100.00
36014;BME280;22275;43.208;27.620;2023-05-20T08:49:40;101390.13;;;22.46;100.00
36014;BME280;22275;43.208;27.620;2023-05-20T08:52:10;101393.44;;;22.67;100.00
36014;BME280;22275;43.208;27.620;2023-05-20T08:54:43;101382.53;;;23.81;100.00
36014;BME280;22275;43.208;27.620;2023-05-20T08:57:12;101394.78;;;23.06;100.00
36014;BME280;22275;43.208;27.620;2023-05-20T08:59:45;101400.09;;;22.80;100.00
36014;BME280;22275;43.208;27.620;2023-05-20T09:02:19;101393.72;;;22.64;100.00
36014;BME280;22275;43.208;27.620;2023-05-20T09:04:51;101388.50;;;27.40;100.00
36014;BME280;22275;43.208;27.620;2023-05-20T09:07:28;101358.91;;;26.87;100.00
36014;BME280;22275;43.208;27.620;2023-05-20T09:09:56;101368.16;;;25.61;100.00
36014;BME280;22275;43.208;27.620;2023-05-20T09:12:33;101376.59;;;26.05;100.00
36014;BME280;22275;43.208;27.620;2023-05-20T09:15:00;101371.72;;;25.29;100.00
36014;BME280;22275;43.208;27.620;2023-05-20T09:17:27;101377.81;;;25.15;100.00
36014;BME280;22275;43.208;27.620;2023-05-20T09:19:54;101374.91;;;26.04;100.00
36014;BME280;22275;43.208;27.620;2023-05-20T09:22:22;101363.56;;;26.47;100.00
36014;BME280;22275;43.208;27.620;2023-05-20T09:24:54;101363.31;;;26.88;100.00
36014;BME280;22275;43.208;27.620;2023-05-20T09:27:25;101361.09;;;26.60;100.00
36014;BME280;22275;43.208;27.620;2023-05-20T09:29:52;101356.84;;;26.89;100.00
36014;BME280;22275;43.208;27.620;2023-05-20T09:32:20;101351.97;;;27.07;100.00
36014;BME280;22275;43.208;27.620;2023-05-20T09:34:51;101344.06;;;26.82;100.00
36014;BME280;22275;43.208;27.620;2023-05-20T09:37:20;101346.97;;;27.33;100.00
36014;BME280;22275;43.208;27.620;2023-05-20T09:39:55;101343.78;;;27.29;100.00
36014;BME280;22275;43.208;27.620;2023-05-20T09:42:34;101341.88;;;27.01;100.00
36014;BME280;22275;43.208;27.620;2023-05-20T09:45:04;101326.13;;;27.04;100.00
36014;BME280;22275;43.208;27.620;2023-05-20T09:47:34;101328.78;;;27.27;100.00
36014;BME280;22275;43.208;27.620;2023-05-20T09:50:02;101321.41;;;27.50;100.00
36014;BME280;22275;43.208;27.620;2023-05-20T09:52:30;101326.44;;;26.64;100.00
36014;BME280;22275;43.208;27.620;2023-05-20T09:54:58;101324.22;;;26.67;100.00
36014;BME280;22275;43.208;27.620;2023-05-20T09:57:29;101298.59;;;27.53;100.00
36014;BME280;22275;43.208;27.620;2023-05-20T09:59:58;101309.97;;;27.98;100.00
36014;BME280;22275;43.208;27.620;2023-05-20T10:02:27;101297.50;;;27.83;100.00
36014;BME280;22275;43.208;27.620;2023-05-20T10:04:56;101283.28;;;27.95;100.00
36014;BME280;22275;43.208;27.620;2023-05-20T10:10:28;101298.84;;;28.23;100.00
36014;BME280;22275;43.208;27.620;2023-05-20T10:13:15;101284.31;;;27.94;100.00
36014;BME280;22275;43.208;27.620;2023-05-20T10:15:50;101286.44;;;28.14;100.00
36014;BME280;22275;43.208;27.620;2023-05-20T10:18:32;101272.44;;;27.95;100.00
36014;BME280;22275;43.208;27.620;2023-05-20T10:21:02;101283.84;;;28.27;100.00
36014;BME280;22275;43.208;27.620;2023-05-20T10:23:30;101278.72;;;26.94;100.00
36014;BME280;22275;43.208;27.620;2023-05-20T10:26:04;101283.13;;;26.95;100.00
36014;BME280;22275;43.208;27.620;2023-05-20T10:28:36;101270.47;;;27.24;100.00
36014;BME280;22275;43.208;27.620;2023-05-20T10:31:16;101262.25;;;27.62;100.00
36014;BME280;22275;43.208;27.620;2023-05-20T10:33:53;101262.97;;;27.70;100.00
36014;BME280;22275;43.208;27.620;2023-05-20T10:36:24;101258.13;;;27.80;100.00
36014;BME280;22275;43.208;27.620;2023-05-20T10:38:53;101256.59;;;27.92;100.00
36014;BME280;22275;43.208;27.620;2023-05-20T10:41:23;101259.47;;;28.27;100.00
36014;BME280;22275;43.208;27.620;2023-05-20T10:44:02;101249.53;;;28.76;100.00
36014;BME280;22275;43.208;27.620;2023-05-20T10:46:30;101238.22;;;28.73;100.00
36014;BME280;22275;43.208;27.620;2023-05-20T10:48:57;101232.19;;;29.33;100.00
36014;BME280;22275;43.208;27.620;2023-05-20T10:51:27;101232.03;;;29.47;100.00
36014;BME280;22275;43.208;27.620;2023-05-20T10:53:56;101225.75;;;29.94;100.00
36014;BME280;22275;43.208;27.620;2023-05-20T10:56:26;101219.34;;;30.87;100.00
36014;BME280;22275;43.208;27.620;2023-05-20T10:58:54;101204.69;;;30.16;100.00
36014;BME280;22275;43.208;27.620;2023-05-20T11:01:25;101202.00;;;30.49;100.00
36014;BME280;22275;43.208;27.620;2023-05-20T11:03:53;101193.44;;;30.65;100.00
36014;BME280;22275;43.208;27.620;2023-05-20T11:06:29;101187.53;;;30.88;100.00
36014;BME280;22275;43.208;27.620;2023-05-20T11:09:02;101178.13;;;30.11;98.63
36014;BME280;22275;43.208;27.620;2023-05-20T11:11:34;101179.91;;;29.65;94.63
36014;BME280;22275;43.208;27.620;2023-05-20T11:14:04;101178.44;;;29.62;90.19
36014;BME280;22275;43.208;27.620;2023-05-20T11:16:33;101162.88;;;30.10;91.48
36014;BME280;22275;43.208;27.620;2023-05-20T11:19:00;101162.22;;;29.82;83.25
36014;BME280;22275;43.208;27.620;2023-05-20T11:21:28;101141.34;;;29.35;85.11
36014;BME280;22275;43.208;27.620;2023-05-20T11:24:01;101158.69;;;30.28;85.11
36014;BME280;22275;43.208;27.620;2023-05-20T11:26:28;101163.13;;;29.55;80.22
36014;BME280;22275;43.208;27.620;2023-05-20T11:28:58;101139.03;;;30.12;73.83
36014;BME280;22275;43.208;27.620;2023-05-20T11:31:25;101138.19;;;30.64;74.44
36014;BME280;22275;43.208;27.620;2023-05-20T11:33:54;101143.28;;;31.18;77.49
36014;BME280;22275;43.208;27.620;2023-05-20T11:36:21;101138.00;;;30.40;72.25
36014;BME280;22275;43.208;27.620;2023-05-20T11:38:50;101121.88;;;30.58;70.65
36014;BME280;22275;43.208;27.620;2023-05-20T11:41:22;101135.63;;;30.96;72.21
36014;BME280;22275;43.208;27.620;2023-05-20T11:43:55;101132.78;;;30.45;71.41
36014;BME280;22275;43.208;27.620;2023-05-20T11:46:22;101117.84;;;31.38;69.69
36014;BME280;22275;43.208;27.620;2023-05-20T11:48:57;101112.00;;;31.72;73.30
36014;BME280;22275;43.208;27.620;2023-05-20T11:51:26;101099.41;;;31.40;70.20
36014;BME280;22275;43.208;27.620;2023-05-20T11:53:58;101115.34;;;30.72;74.01
36014;BME280;22275;43.208;27.620;2023-05-20T11:56:28;101118.91;;;30.79;72.02
36014;BME280;22275;43.208;27.620;2023-05-20T11:58:56;101144.06;;;30.35;69.96
36014;BME280;22275;43.208;27.620;2023-05-20T12:01:24;101090.50;;;30.55;69.57
36014;BME280;22275;43.208;27.620;2023-05-20T12:03:54;101089.66;;;30.29;68.85
36014;BME280;22275;43.208;27.620;2023-05-20T12:06:21;101083.97;;;30.69;68.53
36014;BME280;22275;43.208;27.620;2023-05-20T12:08:48;101099.50;;;29.84;66.53
36014;BME280;22275;43.208;27.620;2023-05-20T12:11:15;101102.22;;;30.23;71.08
36014;BME280;22275;43.208;27.620;2023-05-20T12:13:50;101114.31;;;30.66;68.82
36014;BME280;22275;43.208;27.620;2023-05-20T12:16:22;101079.00;;;29.68;67.94
36014;BME280;22275;43.208;27.620;2023-05-20T12:18:54;101106.44;;;30.39;64.54
36014;BME280;22275;43.208;27.620;2023-05-20T12:21:21;101092.69;;;31.04;64.35
36014;BME280;22275;43.208;27.620;2023-05-20T12:23:48;101084.00;;;31.27;62.10
36014;BME280;22275;43.208;27.620;2023-05-20T12:26:15;101114.13;;;31.32;62.26
36014;BME280;22275;43.208;27.620;2023-05-20T12:28:42;101083.50;;;31.74;63.48
36014;BME280;22275;43.208;27.620;2023-05-20T12:31:09;101071.09;;;31.78;64.13
36014;BME280;22275;43.208;27.620;2023-05-20T12:33:36;101093.66;;;31.16;74.19
36014;BME280;22275;43.208;27.620;2023-05-20T12:36:08;101071.72;;;30.28;79.28
36014;BME280;22275;43.208;27.620;2023-05-20T12:38:37;101092.69;;;31.49;78.68
36014;BME280;22275;43.208;27.620;2023-05-20T12:41:07;101073.97;;;31.21;82.12
36014;BME280;22275;43.208;27.620;2023-05-20T12:43:34;101089.00;;;30.72;83.95